Terminal Aerodrome Forecast
Issued by NWS Louisville, KY

Home | Current Version | Previous Version | Text Only | Print | Product List | Glossary On
Versions: 1 2 3 4 5 6 7 8 9 10 11 12 13 14 15 16 17 18 19 20 21 22
000
FTUS43 KLMK 270900 CCA
TAFLEX
TAF COR
KLEX 270951Z 2710/2806 VRB03KT 3SM -FZDZSN BR OVC012
     FM271200 03003KT P6SM OVC015
     FM271400 36007KT P6SM BKN040
     FM272200 36005KT P6SM SKC=

USA.gov is the U.S. government's official web portal to all federal, state and local government web resources and services.